キエフ/ボリースピリ の空港の天気 - METARとTAF

ボリースピリ国際空港(キエフ) ( UKBB / KBP ) - ウクライナ ボリスピリ (キエフ近郊)
飛行場実況気象(Metar)
観測時間05/26 02:30 EEST (05/25 23:30 UTC)
風向・風速東 4m/s
視程10km以上
天気現象弱い雨
全天を覆う雲 雲底高度 1220m
気温11℃
湿度87%
気圧1021hPa
METARUKBB 252330Z 08004MPS 9999 -RA OVC040 11/09 Q1021 R88/290050 NOSIG
過去の天気等 Google飛行場航空写真 Wunderground天気予報

過去48時間のMETAR

飛行場予報(TAF)
発表時間: 5/26 02:09 EEST (5/25 23:09 UTC)
予報対象時間: 26日3時 EEST ~ 27日3時 EEST
風向・風速東北東 3m/s 瞬間風速 8m/s
視程4000m
天気現象弱い雨 もや
全天を覆う雲 雲底高度 180m
26日3時 EEST ~ 26日9時 EEST に一時的に
風向・風速東 6m/s 瞬間風速 12m/s
視程400m
天気現象弱いしゅう雨 霧
全天の8割程度の雲 雲底高度 30m
全天の4割程度の積乱雲 雲底高度 370m
26日9時 EEST ~ 26日24時 EEST に一時的に
風向・風速北東 6m/s 瞬間風速 12m/s
視程1600m
天気現象弱いしゅう雨 もや
全天の8割程度の雲 雲底高度 120m
全天の4割程度の積乱雲 雲底高度 460m
TAF UKBB 252309Z 2600/2624 07003G08MPS 4000 -RA BR OVC006
TEMPO 2600/2606 09006G12MPS 0400 -SHRA FG BKN001 SCT012CB
TEMPO 2606/2621 05006G12MPS 1600 -SHRA BR BKN004 SCT015CB